Schedule Details


Flight Number: CTN300
Departure: Cilipi (LDDU) at 16:30
Arrival: Eleftherios Venizelos Intl (LGAV) at 19:00
Route: MADOS L187 DBK UL607 XORKI

Weather Information
LDDU 092200Z 30008KT 250V010 CAVOK 14/05 Q1020
LGAV 092150Z 35005KT CAVOK 13/M01 Q1018 NOSIG
Schedule Frequency

Route Map